createdAt,value
2019-03-05T04:01:15.916Z,1.00
2019-03-05T04:03:44.530Z,0.80
2019-03-05T04:06:13.110Z,0.60
2019-03-05T04:08:42.056Z,0.80
2019-03-05T04:11:10.635Z,0.80
2019-03-05T04:13:39.215Z,0.70
2019-03-05T04:16:07.803Z,0.70
2019-03-05T04:18:36.370Z,0.73
2019-03-05T04:21:04.934Z,0.80
2019-03-05T04:23:33.549Z,0.80
2019-03-05T04:26:02.122Z,0.90
2019-03-05T04:28:30.730Z,0.90
2019-03-05T04:30:59.576Z,0.80
2019-03-05T04:33:28.143Z,1.13
2019-03-05T04:35:56.785Z,1.03
2019-03-05T04:38:25.361Z,0.90
2019-03-05T04:40:53.953Z,1.10
2019-03-05T04:43:22.526Z,1.00
2019-03-05T04:46:16.379Z,0.80
2019-03-05T04:48:46.617Z,1.20
2019-03-05T04:51:21.829Z,1.30
2019-03-05T04:53:50.397Z,1.33
2019-03-05T04:56:18.969Z,1.23
2019-03-05T04:58:47.914Z,1.27
2019-03-05T05:01:16.757Z,1.30
2019-03-05T05:03:45.393Z,1.40
2019-03-05T05:06:13.998Z,1.40
2019-03-05T05:08:42.561Z,1.43
2019-03-05T05:11:11.154Z,1.30
2019-03-05T06:22:29.555Z,1.30
2019-03-05T06:24:58.189Z,1.50
2019-03-05T06:27:26.816Z,1.30
2019-03-05T06:29:55.455Z,1.53
2019-03-05T06:32:24.084Z,1.70
2019-03-05T06:34:52.731Z,2.00
2019-03-05T06:37:21.647Z,1.50
2019-03-05T06:39:50.285Z,1.70
2019-03-05T06:42:18.935Z,1.60
2019-03-05T06:44:47.628Z,2.30
2019-03-05T06:47:16.349Z,1.33
2019-03-05T06:49:44.996Z,2.20
2019-03-05T06:52:13.626Z,1.63
2019-03-05T06:54:42.278Z,1.73
2019-03-05T06:57:10.977Z,1.67
2019-03-05T06:59:39.716Z,1.53
2019-03-05T07:02:08.393Z,1.30
2019-03-05T07:04:37.070Z,1.70
2019-03-05T07:07:05.737Z,1.73
2019-03-05T07:10:05.261Z,1.50
2019-03-05T07:13:00.473Z,1.60
2019-03-05T07:15:37.939Z,1.73
2019-03-05T07:18:13.972Z,1.33
2019-03-05T07:21:45.031Z,1.20
2019-03-05T07:24:46.031Z,1.93
2019-03-05T07:27:23.177Z,1.30
2019-03-05T07:29:52.101Z,1.60
2019-03-05T07:32:20.796Z,1.53
2019-03-05T07:34:50.167Z,1.53
2019-03-05T07:37:18.932Z,1.40
2019-03-05T07:39:47.624Z,1.90
2019-03-05T07:42:16.292Z,1.93
2019-03-05T07:44:44.927Z,1.13
2019-03-05T07:47:13.551Z,1.20
2019-03-05T07:49:44.056Z,1.00
2019-03-05T07:52:12.577Z,0.90
2019-03-05T07:54:41.248Z,0.87
2019-03-05T07:57:09.888Z,0.80
2019-03-05T07:59:38.515Z,0.90
2019-03-05T08:02:07.171Z,0.90
2019-03-05T08:04:35.808Z,0.90
2019-03-05T08:07:04.643Z,0.90
2019-03-05T08:09:37.640Z,0.80
2019-03-05T08:12:32.957Z,0.87
2019-03-05T08:15:46.800Z,0.67
2019-03-05T08:18:15.461Z,0.70
2019-03-05T08:20:44.166Z,0.73
2019-03-05T08:23:12.796Z,0.70
2019-03-05T08:25:41.513Z,1.10
2019-03-05T08:28:10.237Z,1.07
2019-03-05T08:30:38.901Z,0.73
2019-03-05T08:33:07.608Z,0.57
2019-03-05T08:35:36.248Z,0.60
2019-03-05T08:38:04.971Z,0.70
2019-03-05T08:40:33.965Z,0.67
2019-03-05T08:43:02.696Z,0.90
2019-03-05T08:45:31.370Z,0.40
2019-03-05T08:48:00.012Z,0.60
2019-03-05T08:50:28.675Z,0.70
2019-03-05T08:52:57.309Z,0.60
2019-03-05T08:55:25.962Z,0.70
2019-03-05T08:57:54.595Z,0.50
2019-03-05T09:00:23.416Z,0.60
2019-03-05T09:02:52.332Z,0.50
2019-03-05T09:05:20.958Z,0.47
2019-03-05T09:07:49.950Z,0.60
2019-03-05T09:10:19.680Z,0.57
2019-03-05T09:12:48.358Z,0.70
2019-03-05T09:15:17.399Z,0.50
2019-03-05T09:17:46.035Z,0.60
2019-03-05T09:20:15.856Z,0.60
2019-03-05T09:22:44.560Z,0.63
2019-03-05T09:25:13.968Z,0.73
2019-03-05T09:27:42.999Z,0.67
2019-03-05T09:30:15.080Z,0.60
2019-03-05T09:32:43.731Z,0.67
2019-03-05T09:35:12.800Z,0.80
2019-03-05T09:37:41.492Z,0.80
2019-03-05T09:40:15.987Z,1.07
2019-03-05T09:42:44.716Z,0.90
2019-03-05T09:45:14.944Z,1.20
2019-03-05T09:47:43.572Z,0.90
2019-03-05T09:50:13.856Z,0.87
2019-03-05T09:52:51.219Z,0.50
2019-03-05T09:55:15.352Z,0.70
2019-03-05T09:57:44.015Z,0.70
2019-03-05T10:00:15.477Z,0.80
2019-03-05T10:02:44.130Z,0.90
2019-03-05T10:05:13.429Z,0.70
2019-03-05T10:07:42.068Z,0.53
2019-03-05T10:10:12.812Z,0.60
2019-03-05T10:12:41.441Z,0.80
2019-03-05T10:15:13.140Z,0.87
2019-03-05T10:17:41.781Z,0.80
2019-03-05T10:20:13.368Z,0.80
2019-03-05T10:22:42.032Z,0.87
2019-03-05T10:25:12.934Z,0.73
2019-03-05T10:27:41.703Z,0.70
2019-03-05T10:30:25.098Z,0.60
2019-03-05T10:32:52.871Z,0.60
2019-03-05T10:35:22.918Z,0.60
2019-03-05T10:37:51.537Z,0.73
2019-03-05T10:40:20.845Z,0.53
2019-03-05T10:42:49.496Z,0.60
2019-03-05T10:45:18.356Z,0.70
2019-03-05T10:47:47.665Z,0.60
2019-03-05T10:50:18.482Z,0.70
2019-03-05T10:52:47.144Z,0.50
2019-03-05T10:55:25.979Z,0.70
2019-03-05T10:57:46.269Z,0.50
2019-03-05T11:00:17.352Z,0.53
2019-03-05T11:02:45.979Z,0.70
2019-03-05T11:05:14.616Z,0.60
2019-03-05T11:07:43.600Z,0.53
2019-03-05T11:10:12.353Z,0.70
2019-03-05T11:12:41.044Z,0.50
2019-03-05T11:15:14.848Z,0.60
2019-03-05T11:17:43.784Z,0.67
2019-03-05T11:20:12.440Z,0.90
2019-03-05T11:22:41.216Z,0.60
2019-03-05T11:25:10.652Z,1.03
2019-03-05T11:27:39.276Z,0.50
2019-03-05T11:30:11.508Z,0.70
2019-03-05T11:32:40.491Z,0.57
2019-03-05T11:35:09.586Z,0.77
2019-03-05T11:37:38.571Z,0.80
2019-03-05T11:40:09.303Z,0.90
2019-03-05T11:42:37.940Z,0.70
2019-03-05T11:45:11.631Z,0.77
2019-03-05T11:47:39.367Z,0.90
2019-03-05T11:50:08.663Z,0.70
2019-03-05T11:52:37.328Z,0.77
2019-03-05T11:55:06.463Z,0.80
2019-03-05T11:57:35.256Z,0.93
2019-03-05T12:00:04.094Z,0.80
2019-03-05T12:02:32.749Z,0.77
2019-03-05T12:05:01.380Z,0.60
2019-03-05T12:07:30.045Z,0.80
2019-03-05T12:09:58.707Z,1.00
2019-03-05T12:12:27.411Z,0.70
2019-03-05T12:14:56.064Z,1.13
2019-03-05T12:17:24.704Z,1.23
2019-03-05T12:19:53.364Z,0.70
2019-03-05T12:22:22.025Z,0.73
2019-03-05T12:24:50.701Z,0.80
2019-03-05T12:27:19.368Z,0.67
2019-03-05T12:29:48.016Z,0.70
2019-03-05T12:32:16.689Z,1.10
2019-03-05T12:34:45.319Z,0.90
2019-03-05T12:37:13.954Z,0.80
2019-03-05T12:39:42.917Z,0.93
2019-03-05T12:42:11.557Z,0.93
2019-03-05T12:44:40.212Z,0.87
2019-03-05T12:47:08.846Z,1.10
2019-03-05T12:49:37.468Z,0.77
2019-03-05T12:52:06.128Z,0.97
2019-03-05T12:54:34.789Z,1.10
2019-03-05T12:57:03.463Z,0.90
2019-03-05T12:59:32.104Z,0.70
2019-03-05T13:02:00.766Z,1.00
2019-03-05T13:04:29.496Z,1.07
2019-03-05T13:06:58.168Z,1.07
2019-03-05T13:09:26.881Z,0.80
2019-03-05T13:11:55.508Z,0.73
2019-03-05T13:14:24.135Z,1.00
2019-03-05T13:16:52.797Z,0.97
2019-03-05T13:19:21.497Z,3.17
2019-03-05T13:21:50.309Z,3.80
2019-03-05T13:24:19.074Z,1.40
2019-03-05T13:26:47.722Z,1.33
2019-03-05T13:29:19.331Z,2.70
2019-03-05T13:31:47.108Z,1.20
2019-03-05T13:34:17.845Z,0.83
2019-03-05T13:36:50.631Z,0.90
2019-03-05T13:39:22.444Z,0.90
2019-03-05T13:41:50.399Z,1.03
2019-03-05T13:44:32.268Z,0.80
2019-03-05T13:47:00.995Z,1.07
2019-03-05T13:49:58.716Z,1.20
2019-03-05T13:53:01.998Z,1.23
2019-03-05T13:56:03.989Z,1.10
2019-03-05T13:58:54.540Z,1.67
2019-03-05T14:01:23.188Z,0.90
2019-03-05T14:04:05.328Z,1.00
2019-03-05T14:07:11.205Z,1.00
2019-03-05T14:09:38.983Z,0.90
2019-03-05T14:12:07.646Z,0.80
2019-03-05T14:14:36.256Z,0.87
2019-03-05T14:17:17.447Z,0.90
2019-03-05T14:19:46.099Z,1.00
2019-03-05T14:22:16.844Z,1.00
2019-03-05T14:24:45.915Z,0.77
2019-03-05T14:27:15.138Z,1.00
2019-03-05T14:29:44.141Z,0.80
2019-03-05T14:32:14.219Z,1.20
2019-03-05T14:34:44.669Z,1.00
2019-03-05T14:37:14.005Z,0.90
2019-03-05T14:39:43.623Z,0.90
2019-03-05T14:42:13.572Z,0.90
2019-03-05T14:44:43.950Z,1.10
2019-03-05T14:47:15.077Z,1.30
2019-03-05T14:49:44.968Z,1.30
2019-03-05T14:52:13.780Z,1.10
2019-03-05T14:54:42.451Z,1.70
2019-03-05T14:57:11.490Z,1.50
2019-03-05T14:59:40.275Z,1.00
2019-03-05T15:02:09.133Z,1.43
2019-03-05T15:04:37.896Z,1.23
2019-03-05T15:07:06.578Z,1.37
2019-03-05T15:09:35.274Z,2.50
2019-03-05T15:12:04.079Z,2.20
2019-03-05T15:14:32.797Z,2.17
2019-03-05T15:17:01.479Z,1.70
2019-03-05T15:19:30.156Z,1.20
2019-03-05T15:21:58.893Z,2.63
2019-03-05T15:24:27.588Z,3.17
2019-03-05T15:26:56.312Z,2.73
2019-03-05T15:29:25.098Z,2.60
2019-03-05T15:31:53.827Z,2.77
2019-03-05T15:34:22.767Z,4.47
2019-03-05T15:36:52.152Z,2.60
2019-03-05T15:39:21.039Z,4.57
2019-03-05T15:41:49.810Z,5.37
2019-03-05T15:44:18.466Z,6.00
2019-03-05T15:46:47.116Z,4.00
2019-03-05T15:49:15.816Z,3.47
2019-03-05T15:51:44.490Z,5.57
2019-03-05T15:54:13.516Z,6.07
2019-03-05T15:56:42.144Z,2.83
2019-03-05T15:59:10.892Z,2.57
2019-03-05T16:01:39.604Z,5.93
2019-03-05T16:04:08.247Z,4.77
2019-03-05T16:06:36.931Z,2.97
2019-03-05T16:09:12.661Z,2.20
2019-03-05T16:11:41.392Z,4.23
2019-03-05T16:14:10.028Z,2.27
2019-03-05T16:16:38.737Z,1.97
2019-03-05T16:19:07.394Z,1.40
2019-03-05T16:21:37.221Z,2.70
2019-03-05T16:24:06.868Z,1.83
2019-03-05T16:26:35.904Z,1.83
2019-03-05T16:29:05.812Z,2.47
2019-03-05T16:31:56.301Z,2.30
2019-03-05T16:34:47.119Z,1.93
2019-03-05T16:37:31.468Z,1.83
2019-03-05T16:40:22.254Z,2.60
2019-03-05T16:43:02.106Z,3.53
2019-03-05T16:45:49.804Z,1.60
2019-03-05T16:48:37.544Z,1.40
2019-03-05T16:51:26.570Z,1.07
2019-03-05T16:54:24.039Z,2.07
2019-03-05T16:57:04.346Z,1.50
2019-03-05T16:59:53.216Z,1.70
2019-03-05T17:02:46.764Z,1.70
2019-03-05T17:05:41.160Z,1.43
2019-03-05T17:08:49.668Z,1.67
2019-03-05T17:11:45.304Z,2.10
2019-03-05T17:14:23.149Z,1.30
2019-03-05T17:16:51.833Z,1.57
2019-03-05T17:19:20.465Z,1.60
2019-03-05T17:21:49.206Z,1.30
2019-03-05T17:24:18.719Z,2.03
2019-03-05T17:26:47.383Z,1.30
2019-03-05T17:29:16.080Z,2.20
2019-03-05T17:31:44.868Z,1.70
2019-03-05T17:34:13.488Z,1.57
2019-03-05T17:36:42.144Z,1.97
2019-03-05T17:39:17.547Z,1.50
2019-03-05T17:41:46.207Z,3.10
2019-03-05T17:44:14.844Z,1.90
2019-03-05T17:46:44.839Z,1.47
2019-03-05T17:49:14.747Z,2.70
2019-03-05T17:51:43.467Z,2.80
2019-03-05T17:54:12.694Z,2.20
2019-03-05T17:56:41.420Z,2.10
2019-03-05T17:59:10.358Z,4.10
2019-03-05T18:01:39.040Z,3.07
2019-03-05T18:04:07.732Z,2.67
2019-03-05T18:06:36.394Z,4.67
2019-03-05T18:09:06.037Z,3.10
2019-03-05T18:11:34.678Z,2.40
2019-03-05T18:14:03.332Z,2.37
2019-03-05T18:16:32.028Z,4.30
2019-03-05T18:19:00.802Z,5.40
2019-03-05T18:21:29.443Z,3.97
2019-03-05T18:23:58.256Z,2.63
2019-03-05T18:26:26.981Z,1.50
2019-03-05T18:28:55.605Z,1.70
2019-03-05T18:31:24.274Z,1.90
2019-03-05T18:33:52.924Z,2.70
2019-03-05T18:36:21.847Z,2.53
2019-03-05T18:38:50.499Z,2.40
2019-03-05T18:41:19.124Z,2.40
2019-03-05T18:43:47.767Z,1.97
2019-03-05T18:46:16.400Z,2.90
2019-03-05T18:48:45.304Z,2.10
2019-03-05T18:51:13.963Z,2.70
2019-03-05T18:53:42.595Z,3.33
2019-03-05T18:56:11.246Z,2.00
2019-03-05T18:58:39.871Z,2.20
2019-03-05T19:01:09.756Z,1.53
2019-03-05T19:03:38.552Z,1.73
2019-03-05T19:06:07.181Z,1.80
2019-03-05T19:08:35.811Z,2.00
2019-03-05T19:11:04.479Z,2.40
2019-03-05T19:13:33.279Z,1.83
2019-03-05T19:16:02.141Z,2.20
2019-03-05T19:18:30.832Z,2.00
2019-03-05T19:20:59.456Z,3.10
2019-03-05T19:23:28.130Z,3.20
2019-03-05T19:25:57.493Z,2.90
2019-03-05T19:28:26.176Z,2.80
2019-03-05T19:30:54.811Z,3.43
2019-03-05T19:33:23.553Z,4.60
2019-03-05T19:35:52.175Z,3.57
2019-03-05T19:38:21.076Z,2.50
2019-03-05T19:40:49.724Z,2.67
2019-03-05T19:43:18.380Z,2.43
2019-03-05T19:45:47.064Z,2.00
2019-03-05T19:48:15.937Z,1.83
2019-03-05T19:50:45.264Z,1.97
2019-03-05T19:53:13.995Z,2.00
2019-03-05T19:55:42.628Z,1.90
2019-03-05T19:58:12.413Z,1.60
2019-03-05T20:01:00.487Z,1.77
2019-03-05T20:03:29.500Z,2.60
2019-03-05T20:05:58.474Z,1.40
2019-03-05T20:08:27.168Z,1.27
2019-03-05T20:10:55.838Z,2.30
2019-03-05T20:13:24.838Z,2.67
2019-03-05T20:15:53.494Z,1.33
2019-03-05T20:18:22.123Z,1.70
2019-03-05T20:20:50.785Z,1.20
2019-03-05T20:23:19.855Z,1.40
2019-03-05T20:25:48.492Z,1.97
2019-03-05T20:28:17.161Z,1.37
2019-03-05T20:30:45.884Z,1.67
2019-03-05T20:33:14.520Z,1.40
2019-03-05T20:35:43.180Z,1.40
2019-03-05T20:38:11.808Z,1.50
2019-03-05T20:40:40.527Z,1.40
2019-03-05T20:43:09.235Z,1.30
2019-03-05T20:45:37.867Z,1.60
2019-03-05T20:48:06.529Z,1.90
2019-03-05T20:50:35.476Z,2.23
2019-03-05T20:53:04.131Z,2.50
2019-03-05T20:55:32.798Z,1.80
2019-03-05T20:58:01.432Z,1.40
2019-03-05T21:00:30.983Z,1.60
2019-03-05T21:03:01.385Z,1.30
2019-03-05T21:05:32.437Z,1.30
2019-03-05T21:08:01.140Z,1.43
2019-03-05T21:10:29.768Z,1.43
2019-03-05T21:12:58.479Z,1.43
2019-03-05T21:15:27.573Z,1.60
2019-03-05T21:17:56.215Z,1.60
2019-03-05T21:20:24.830Z,1.60
2019-03-05T21:22:53.547Z,1.80
2019-03-05T21:25:22.213Z,1.80
2019-03-05T21:27:50.836Z,1.67
2019-03-05T21:30:19.679Z,2.00
2019-03-05T21:32:48.304Z,2.10
2019-03-05T21:35:16.932Z,1.60
2019-03-05T21:37:45.699Z,1.70
2019-03-05T21:40:17.051Z,1.63
2019-03-05T21:42:45.767Z,2.00
2019-03-05T21:45:23.589Z,1.43
2019-03-05T21:47:52.304Z,1.80
2019-03-05T21:50:23.035Z,1.80
2019-03-05T21:52:51.303Z,2.03
2019-03-05T21:55:19.928Z,1.87
2019-03-05T21:57:48.583Z,1.83
2019-03-05T22:00:19.749Z,1.53
2019-03-05T22:02:48.371Z,1.33
2019-03-05T22:05:17.016Z,1.20
2019-03-05T22:07:45.708Z,1.60
2019-03-05T22:10:16.155Z,1.43
2019-03-05T22:12:44.782Z,1.00
2019-03-05T22:15:15.256Z,1.10
2019-03-05T22:17:43.904Z,1.10
2019-03-05T22:20:13.092Z,1.20
2019-03-05T22:22:41.776Z,1.13
2019-03-05T22:25:11.631Z,0.97
2019-03-05T22:27:40.256Z,0.90
2019-03-05T22:30:18.339Z,0.90
2019-03-05T22:32:47.001Z,1.30
2019-03-05T22:35:16.637Z,1.03
2019-03-05T22:37:45.272Z,1.03
2019-03-05T22:40:14.208Z,0.93
2019-03-05T22:42:42.913Z,0.80
2019-03-05T22:45:14.319Z,1.00
2019-03-05T22:47:42.967Z,0.97
2019-03-05T22:50:11.600Z,1.00
2019-03-05T22:52:40.503Z,0.87
2019-03-05T22:55:09.276Z,0.90
2019-03-05T22:57:37.928Z,1.33
2019-03-05T23:00:10.508Z,1.00
